• Join FlightAware (Why Join?)
  • Login
  • US Flag 
12:31PM EDT


 

Airport Tracker/Info


-or-


 

Live Flight TrackerFlight Track Log ✈ DAL2288 ✈ 30-Apr-2013 ✈ KATL - KBOS

Flight Track Log - Related Links

Times and Time Zones

All times are in EDT time to prevent confusion due to time zone crossing. See the DAL2288 flight status page for this flight to view local times or setup timezone preferences in your user account.

Time Position Orientation Groundspeed Altitude Reporting Facility
EDT Latitude Longitude Course Direction KTS MPH feet Rate Location/Type
12:48PM 33.6478 -84.3733 53° Northeast 451 519 2,700  Level Atlanta Center
12:49PM 33.6625 -84.2983 77° East 348 400 4,900 2,520 Climbing Atlanta Center
12:50PM 33.7316 -84.0085 54° Northeast  Level FlightAware Approximate
12:50PM 33.6772 -84.2136 78° East 272 313 7,800  Level Atlanta Center
12:51PM 33.8010 -83.8930 54° Northeast  Level FlightAware Approximate
12:51PM 33.7086 -84.1086 70° East 294 338 10,600  Level Atlanta Center
12:52PM 33.8708 -83.7778 48° Northeast  Level FlightAware Approximate
12:52PM 33.7525 -84.0014 64° Northeast 327 376 12,300  Level Atlanta Center
12:53PM 33.9468 -83.6685 53° Northeast  Level FlightAware Approximate
12:53PM 33.8172 -83.9014 52° Northeast 365 420 14,500  Level Atlanta Center
12:54PM 33.8858 -83.7886 54° Northeast 400 460 16,600 2,160 Climbing Atlanta Center
12:55PM 33.9564 -83.6731 54° Northeast 417 480 18,900 2,100 Climbing Atlanta Center
12:56PM 34.0292 -83.5575 53° Northeast 427 491 20,800 1,800 Climbing Atlanta Center
12:57PM 34.1058 -83.4367 53° Northeast 442 509 22,500 1,080 Climbing Atlanta Center
12:58PM 34.1844 -83.3156 52° Northeast 453 521 23,000 720 Climbing Atlanta Center
12:59PM 34.2608 -83.1867 54° Northeast 462 532 24,000 1,200 Climbing Atlanta Center
01:00PM 34.3392 -83.0578 54° Northeast 468 539 25,400 1,500 Climbing Atlanta Center
01:01PM 34.4217 -82.9283 52° Northeast 485 558 27,100 1,800 Climbing Atlanta Center
01:02PM 34.5039 -82.7986 52° Northeast 485 558 29,100 1,800 Climbing Atlanta Center
01:03PM 34.5717 -82.6867 54° Northeast 474 545 30,800 1,560 Climbing Atlanta Center
01:04PM 34.6494 -82.5642 52° Northeast 468 539 32,300 1,380 Climbing Atlanta Center
01:05PM 34.7250 -82.4339 55° Northeast 461 531 33,600 3,300 Climbing Atlanta Center
01:06PM 34.8025 -82.3111 52° Northeast 461 531 39,000 1,200 Climbing Atlanta Center
01:07PM 34.8758 -82.1856 55° Northeast 456 525 36,000 -1,500 Descending Atlanta Center
01:08PM 34.9614 -82.0517 52° Northeast 450 518 36,000  Level Atlanta Center
01:09PM 35.0367 -81.9231 54° Northeast 455 524 36,000  Level Atlanta Center
01:10PM 35.0992 -81.8072 57° Northeast 455 524 36,100 660 Climbing Atlanta Center
01:11PM 35.1678 -81.6758 57° Northeast 465 535 37,400 1,140 Climbing Atlanta Center
01:12PM 35.2361 -81.5467 57° Northeast 459 528 38,400 780 Climbing Atlanta Center
01:13PM 35.3042 -81.4150 58° Northeast 454 522 39,000 300 Climbing Atlanta Center
01:14PM 35.3722 -81.2828 58° Northeast 454 522 39,000  Level Atlanta Center
01:15PM 35.4400 -81.1456 59° Northeast 464 534 39,000  Level Atlanta Center
01:16PM 35.5119 -81.0103 57° Northeast 469 540 39,000  Level Atlanta Center
01:17PM 35.5817 -80.8775 57° Northeast 463 533 39,000  Level Atlanta Center
01:19PM 35.7006 -80.6486 57° Northeast 470 541 39,000  Level Washington Center
01:20PM 35.7711 -80.5125 57° Northeast 465 535 39,100  Climbing Washington Center
01:21PM 35.8389 -80.3808 58° Northeast 465 535 39,000 -60 Descending Washington Center
01:22PM 35.9069 -80.2439 58° Northeast 465 535 39,000  Level Washington Center
01:23PM 35.9747 -80.1094 58° Northeast 460 529 39,000  Level Washington Center
01:24PM 36.0531 -79.9672 56° Northeast 455 524 39,000  Level Washington Center
01:25PM 36.1289 -79.8353 55° Northeast 460 529 39,000  Level Washington Center
01:26PM 36.2022 -79.7028 56° Northeast 465 535 39,000  Level Washington Center
01:27PM 36.2756 -79.5725 55° Northeast 465 535 39,000  Level Washington Center
01:28PM 36.3508 -79.4397 55° Northeast 465 535 39,000  Level Washington Center
01:29PM 36.4131 -79.3189 57° Northeast 465 535 39,000  Level Washington Center
01:30PM 36.4881 -79.1881 54° Northeast 460 529 39,000  Level Washington Center
01:31PM 36.5736 -79.0472 53° Northeast 460 529 39,100  Climbing Washington Center
01:32PM 36.6461 -78.9133 56° Northeast 460 529 39,000 -60 Descending Washington Center
01:33PM 36.7167 -78.7764 57° Northeast 465 535 39,000  Level Washington Center
01:34PM 36.7844 -78.6547 55° Northeast 465 535 39,000  Level Washington Center
01:35PM 36.8708 -78.5414 46° Northeast 465 535 39,000  Level Washington Center
01:36PM 36.9653 -78.4358 42° Northeast 460 529 39,000  Level Washington Center
01:37PM 37.0597 -78.3219 44° Northeast 455 524 39,000  Level Washington Center
01:38PM 37.1647 -78.2008 43° Northeast 460 529 39,000 -60 Level Washington Center
01:39PM 37.2564 -78.0969 42° Northeast 452 520 38,900 -300 Descending Washington Center
01:40PM 37.3506 -77.9903 42° Northeast 446 513 38,400 -480 Descending Washington Center
01:41PM 37.4464 -77.8808 42° Northeast 446 513 38,000 -240 Descending Washington Center
01:42PM 37.5425 -77.7711 42° Northeast 446 513 38,000  Level Washington Center
01:43PM 37.6381 -77.6608 42° Northeast 446 513 38,000  Level Washington Center
01:44PM 37.7339 -77.5506 42° Northeast 451 519 38,000  Level Washington Center
01:45PM 37.8275 -77.4400 43° Northeast 451 519 38,000  Level Washington Center
01:46PM 37.9250 -77.3292 42° Northeast 451 519 38,000  Level Washington Center
01:47PM 38.0056 -77.2308 44° Northeast 451 519 38,000  Level Washington Center
01:48PM 38.1008 -77.1194 43° Northeast 451 519 38,000  Level Washington Center
01:49PM 38.2089 -76.9922 43° Northeast 459 528 38,000  Level Washington Center
01:50PM 38.3019 -76.8803 43° Northeast 459 528 38,000  Level Washington Center
01:51PM 38.3842 -76.7836 43° Northeast 454 522 38,000  Level Washington Center
01:52PM 38.4769 -76.6711 43° Northeast 449 517 38,000  Level Washington Center
01:53PM 38.5717 -76.5608 42° Northeast 449 517 38,000  Level Washington Center
01:54PM 38.6644 -76.4478 44° Northeast 449 517 38,000  Level Washington Center
01:55PM 38.7589 -76.3344 43° Northeast 449 517 38,000  Level Washington Center
01:56PM 38.8511 -76.2208 44° Northeast 449 517 38,000  Level Washington Center
01:57PM 38.9603 -76.0961 42° Northeast 454 522 38,000  Level Washington Center
01:58PM 39.0522 -75.9844 43° Northeast 454 522 38,000  Level Washington Center
01:59PM 39.1444 -75.8700 44° Northeast 454 522 38,000  Level Washington Center
02:00PM 39.2364 -75.7603 43° Northeast 448 516 38,000 -60 Level Washington Center
02:01PM 39.3258 -75.6478 44° Northeast 448 516 37,900 -540 Descending Washington Center
02:02PM 39.4178 -75.5297 45° Northeast 448 516 37,000 -360 Descending Washington Center
02:04PM 39.5836 -75.3286 43° Northeast 478 550 37,000  Level New York Center
02:05PM 39.6778 -75.2106 44° Northeast 478 550 37,000  Level New York Center
02:06PM 39.7697 -75.0867 46° Northeast 476 548 37,000  Level New York Center
02:07PM 39.8614 -74.9733 43° Northeast 470 541 37,000  Level New York Center
02:08PM 39.9642 -74.8414 45° Northeast 463 533 37,000  Level New York Center
02:09PM 40.0453 -74.7214 49° Northeast 455 524 37,000  Level New York Center
02:10PM 40.1289 -74.5906 50° Northeast 450 518 37,000  Level New York Center
02:11PM 40.2122 -74.4619 50° Northeast 460 529 37,000  Level New York Center
02:12PM 40.2953 -74.3303 50° Northeast 465 535 37,000  Level New York Center
02:13PM 40.3761 -74.2064 49° Northeast 465 535 37,000  Level New York Center
02:14PM 40.4592 -74.0742 50° Northeast 460 529 37,000 -780 Level New York Center
02:15PM 40.5800 -73.8911 49° Northeast 455 524 35,100 -1,920 Descending Boston Center
02:16PM 40.6608 -73.7614 51° Northeast 455 524 32,200 -3,300 Descending Boston Center
02:17PM 40.7417 -73.6233 52° Northeast 460 529 28,600 -3,600 Descending Boston Center
02:18PM 40.8242 -73.4850 52° Northeast 470 541 25,000 -2,460 Descending Boston Center
02:19PM 40.9128 -73.3575 47° Northeast 470 541 23,700 -1,020 Descending Boston Center
02:20PM 40.9928 -73.2431 47° Northeast 447 514 23,000 -360 Descending Boston Center
02:21PM 41.0686 -73.1311 48° Northeast 424 488 23,000  Level Boston Center
02:22PM 41.1464 -73.0133 49° Northeast 411 473 23,000  Level Boston Center
02:23PM 41.2200 -72.9008 49° Northeast 411 473 23,000  Level Boston Center
02:24PM 41.2767 -72.7606 62° Northeast 416 479 23,000  Level Boston Center
02:25PM 41.3292 -72.6197 64° Northeast 421 484 23,000  Level Boston Center
02:26PM 41.3833 -72.4706 64° Northeast 416 479 23,000  Level Boston Center
02:27PM 41.4333 -72.3350 64° Northeast 411 473 23,000 -300 Level Boston Center
02:28PM 41.4686 -72.2433 63° Northeast 399 459 22,400 -1,260 Descending Boston Center
02:29PM 41.5164 -72.1103 64° Northeast 405 466 20,500 -2,280 Descending Boston Center
02:30PM 41.5700 -71.9517 66° East 399 459 17,900 -2,400 Descending Boston Center
02:31PM 41.6089 -71.8208 68° East 387 445 15,800 -2,100 Descending Boston Center
02:32PM 41.6478 -71.6956 67° East 373 429 13,700 -2,100 Descending Boston Center
02:33PM 41.6822 -71.5728 69° East 368 423 11,700 -1,320 Descending Boston Center
02:34PM 41.7189 -71.4639 66° East 344 396 11,100 -360 Descending Boston Center
02:35PM 41.7619 -71.3769 56° Northeast 306 352 11,000 -60 Descending Boston Center
02:36PM 41.8194 -71.3036 44° Northeast 287 330 11,000 -480 Level Boston Center
02:37PM 41.8836 -71.2439 35° Northeast 276 318 10,100 -1,200 Descending Boston Center
02:38PM 41.9603 -71.2089 19° North 276 318 8,600 -1,680 Descending Boston Center
02:39PM 42.0286 -71.1767 19° North 271 312 6,800 -1,800 Descending Boston Center
02:40PM 42.0928 -71.1447 20° North 258 297 5,100 -1,560 Descending Boston Center
02:41PM 42.1333 -71.1167 27° Northeast 243 280 4,300 -1,200 Descending KA90
02:42PM 42.2000 -71.0833 20° North 217 250 3,200 -1,140 Descending KA90